Casper, Wyoming
Current Conditions -  °F | °C
As of 8:53 PM on Tuesday 27 Jan 2015 (Local Time) from KCPR Reporting Station
Clear Clear  
Wind Chill: 37°   Ceiling: Unl
Heat Index: 45°   Visibility: 10mi
Dew Point: 27°   Wind: 21mph
Humidity: 49%   Direction: 210°SSW
Pressure: 30"   Gusts: NA
Location:  42.85°N, 106.32°W
Report Text: KCPR 280353Z AUTO 21018KT 10SM CLR 07/M03 A3000 RMK AO2 PK WND 22026/0319 SLP140 T00721028
Loading
Personal Weather Stations






























Interactive Weather Map New forecast layout! Learn more

10-Day Weather Forecast

Advertisements
Track Severe Weather on mobile